sensor_id;sensor_type;location;lat;lon;timestamp;P1;durP1;ratioP1;P2;durP2;ratioP2
15094;SDS011;7648;52.264;9.632;2023-05-08T00:01:53;6.07;;;5.57;;
15094;SDS011;7648;52.264;9.632;2023-05-08T00:05:55;6.50;;;6.00;;
15094;SDS011;7648;52.264;9.632;2023-05-08T00:09:58;4.97;;;4.57;;
15094;SDS011;7648;52.264;9.632;2023-05-08T00:14:00;6.30;;;5.80;;
15094;SDS011;7648;52.264;9.632;2023-05-08T00:18:02;6.47;;;5.87;;
15094;SDS011;7648;52.264;9.632;2023-05-08T00:22:04;6.43;;;5.83;;
15094;SDS011;7648;52.264;9.632;2023-05-08T00:26:07;6.30;;;5.73;;
15094;SDS011;7648;52.264;9.632;2023-05-08T00:30:10;4.80;;;4.33;;
15094;SDS011;7648;52.264;9.632;2023-05-08T00:34:14;6.20;;;5.63;;
15094;SDS011;7648;52.264;9.632;2023-05-08T00:38:15;6.57;;;5.97;;
15094;SDS011;7648;52.264;9.632;2023-05-08T00:42:19;6.27;;;5.70;;
15094;SDS011;7648;52.264;9.632;2023-05-08T00:46:21;6.17;;;5.73;;
15094;SDS011;7648;52.264;9.632;2023-05-08T00:50:23;6.77;;;6.07;;
15094;SDS011;7648;52.264;9.632;2023-05-08T00:54:25;6.47;;;5.87;;
15094;SDS011;7648;52.264;9.632;2023-05-08T00:58:28;6.20;;;5.70;;
15094;SDS011;7648;52.264;9.632;2023-05-08T01:02:32;6.10;;;5.53;;
15094;SDS011;7648;52.264;9.632;2023-05-08T01:06:35;6.87;;;6.17;;
15094;SDS011;7648;52.264;9.632;2023-05-08T01:10:41;6.37;;;5.77;;
15094;SDS011;7648;52.264;9.632;2023-05-08T01:14:53;6.20;;;5.60;;
15094;SDS011;7648;52.264;9.632;2023-05-08T01:19:06;7.03;;;5.80;;
15094;SDS011;7648;52.264;9.632;2023-05-08T01:28:05;5.97;;;5.47;;
15094;SDS011;7648;52.264;9.632;2023-05-08T01:32:19;5.27;;;4.83;;
15094;SDS011;7648;52.264;9.632;2023-05-08T01:36:28;6.00;;;5.50;;
15094;SDS011;7648;52.264;9.632;2023-05-08T01:40:39;6.07;;;5.57;;
15094;SDS011;7648;52.264;9.632;2023-05-08T01:44:52;6.43;;;5.97;;
15094;SDS011;7648;52.264;9.632;2023-05-08T01:49:00;5.60;;;5.20;;
15094;SDS011;7648;52.264;9.632;2023-05-08T01:53:08;5.43;;;4.93;;
15094;SDS011;7648;52.264;9.632;2023-05-08T01:57:16;5.40;;;5.00;;
15094;SDS011;7648;52.264;9.632;2023-05-08T02:01:21;5.63;;;4.97;;
15094;SDS011;7648;52.264;9.632;2023-05-08T02:05:26;5.40;;;5.00;;
15094;SDS011;7648;52.264;9.632;2023-05-08T02:09:29;5.00;;;4.60;;
15094;SDS011;7648;52.264;9.632;2023-05-08T02:13:32;6.37;;;5.83;;
15094;SDS011;7648;52.264;9.632;2023-05-08T02:17:35;5.37;;;4.97;;
15094;SDS011;7648;52.264;9.632;2023-05-08T02:21:41;5.60;;;5.30;;
15094;SDS011;7648;52.264;9.632;2023-05-08T02:25:45;5.07;;;4.67;;
15094;SDS011;7648;52.264;9.632;2023-05-08T02:29:48;5.50;;;5.10;;
15094;SDS011;7648;52.264;9.632;2023-05-08T02:33:51;5.70;;;5.20;;
15094;SDS011;7648;52.264;9.632;2023-05-08T02:37:55;5.40;;;5.00;;
15094;SDS011;7648;52.264;9.632;2023-05-08T02:41:58;5.50;;;5.10;;
15094;SDS011;7648;52.264;9.632;2023-05-08T02:46:02;5.80;;;5.40;;
15094;SDS011;7648;52.264;9.632;2023-05-08T02:50:12;5.87;;;5.40;;
15094;SDS011;7648;52.264;9.632;2023-05-08T02:54:22;5.73;;;4.80;;
15094;SDS011;7648;52.264;9.632;2023-05-08T02:58:33;5.70;;;5.17;;
15094;SDS011;7648;52.264;9.632;2023-05-08T03:02:41;5.90;;;5.30;;
15094;SDS011;7648;52.264;9.632;2023-05-08T03:06:48;5.40;;;5.00;;
15094;SDS011;7648;52.264;9.632;2023-05-08T03:10:53;5.70;;;5.20;;
15094;SDS011;7648;52.264;9.632;2023-05-08T03:14:59;6.07;;;5.63;;
15094;SDS011;7648;52.264;9.632;2023-05-08T03:19:04;5.50;;;5.10;;
15094;SDS011;7648;52.264;9.632;2023-05-08T03:23:10;5.83;;;5.33;;
15094;SDS011;7648;52.264;9.632;2023-05-08T03:27:15;6.53;;;5.93;;
15094;SDS011;7648;52.264;9.632;2023-05-08T03:31:20;5.87;;;4.73;;
15094;SDS011;7648;52.264;9.632;2023-05-08T03:35:25;4.87;;;4.50;;
15094;SDS011;7648;52.264;9.632;2023-05-08T03:39:28;5.83;;;5.30;;
15094;SDS011;7648;52.264;9.632;2023-05-08T03:43:32;6.80;;;6.00;;
15094;SDS011;7648;52.264;9.632;2023-05-08T03:47:36;5.50;;;5.10;;
15094;SDS011;7648;52.264;9.632;2023-05-08T03:51:39;5.00;;;4.60;;
15094;SDS011;7648;52.264;9.632;2023-05-08T03:55:41;5.23;;;4.80;;
15094;SDS011;7648;52.264;9.632;2023-05-08T03:59:48;5.90;;;5.47;;
15094;SDS011;7648;52.264;9.632;2023-05-08T04:03:57;5.23;;;4.90;;
15094;SDS011;7648;52.264;9.632;2023-05-08T04:08:08;6.37;;;5.80;;
15094;SDS011;7648;52.264;9.632;2023-05-08T04:12:18;6.33;;;5.90;;
15094;SDS011;7648;52.264;9.632;2023-05-08T04:16:25;6.33;;;5.83;;
15094;SDS011;7648;52.264;9.632;2023-05-08T04:20:29;5.43;;;5.03;;
15094;SDS011;7648;52.264;9.632;2023-05-08T04:24:34;5.70;;;5.30;;
15094;SDS011;7648;52.264;9.632;2023-05-08T04:28:41;6.37;;;5.87;;
15094;SDS011;7648;52.264;9.632;2023-05-08T04:32:47;6.10;;;5.50;;
15094;SDS011;7648;52.264;9.632;2023-05-08T04:36:51;6.70;;;6.20;;
15094;SDS011;7648;52.264;9.632;2023-05-08T04:40:53;7.00;;;6.40;;
15094;SDS011;7648;52.264;9.632;2023-05-08T04:44:56;6.50;;;6.00;;
15094;SDS011;7648;52.264;9.632;2023-05-08T04:49:00;6.73;;;6.13;;
15094;SDS011;7648;52.264;9.632;2023-05-08T04:53:03;6.77;;;6.17;;
15094;SDS011;7648;52.264;9.632;2023-05-08T04:57:05;5.70;;;5.20;;
15094;SDS011;7648;52.264;9.632;2023-05-08T05:01:07;6.47;;;5.87;;
15094;SDS011;7648;52.264;9.632;2023-05-08T05:05:11;5.73;;;5.23;;
15094;SDS011;7648;52.264;9.632;2023-05-08T05:09:13;6.93;;;6.23;;
15094;SDS011;7648;52.264;9.632;2023-05-08T05:13:15;10.53;;;9.30;;
15094;SDS011;7648;52.264;9.632;2023-05-08T05:17:17;12.80;;;10.43;;
15094;SDS011;7648;52.264;9.632;2023-05-08T05:21:21;6.83;;;6.23;;
15094;SDS011;7648;52.264;9.632;2023-05-08T05:25:24;7.20;;;6.50;;
15094;SDS011;7648;52.264;9.632;2023-05-08T05:29:26;6.10;;;5.70;;
15094;SDS011;7648;52.264;9.632;2023-05-08T05:33:28;5.23;;;4.73;;
15094;SDS011;7648;52.264;9.632;2023-05-08T05:37:32;6.60;;;6.00;;
15094;SDS011;7648;52.264;9.632;2023-05-08T05:41:34;7.40;;;6.73;;
15094;SDS011;7648;52.264;9.632;2023-05-08T05:45:36;6.70;;;6.07;;
15094;SDS011;7648;52.264;9.632;2023-05-08T05:49:39;7.07;;;6.47;;
15094;SDS011;7648;52.264;9.632;2023-05-08T05:53:45;6.53;;;5.93;;
15094;SDS011;7648;52.264;9.632;2023-05-08T05:57:47;6.93;;;6.37;;
15094;SDS011;7648;52.264;9.632;2023-05-08T06:01:50;6.47;;;5.87;;
15094;SDS011;7648;52.264;9.632;2023-05-08T06:05:52;6.93;;;6.30;;
15094;SDS011;7648;52.264;9.632;2023-05-08T06:09:55;6.70;;;6.20;;
15094;SDS011;7648;52.264;9.632;2023-05-08T06:13:58;6.47;;;5.97;;
15094;SDS011;7648;52.264;9.632;2023-05-08T06:18:00;7.27;;;6.57;;
15094;SDS011;7648;52.264;9.632;2023-05-08T06:22:02;6.53;;;6.03;;
15094;SDS011;7648;52.264;9.632;2023-05-08T06:26:05;7.10;;;6.40;;
15094;SDS011;7648;52.264;9.632;2023-05-08T06:30:07;7.80;;;7.10;;
15094;SDS011;7648;52.264;9.632;2023-05-08T06:34:10;8.00;;;7.30;;
15094;SDS011;7648;52.264;9.632;2023-05-08T06:38:12;7.53;;;6.83;;
15094;SDS011;7648;52.264;9.632;2023-05-08T06:42:15;7.23;;;6.53;;
15094;SDS011;7648;52.264;9.632;2023-05-08T06:46:19;7.80;;;7.10;;
15094;SDS011;7648;52.264;9.632;2023-05-08T06:50:21;7.50;;;6.80;;
15094;SDS011;7648;52.264;9.632;2023-05-08T06:54:23;7.47;;;6.77;;
15094;SDS011;7648;52.264;9.632;2023-05-08T06:58:27;7.03;;;6.43;;
15094;SDS011;7648;52.264;9.632;2023-05-08T07:06:47;6.87;;;6.37;;
15094;SDS011;7648;52.264;9.632;2023-05-08T07:10:49;6.97;;;6.40;;
15094;SDS011;7648;52.264;9.632;2023-05-08T07:14:53;7.40;;;6.70;;
15094;SDS011;7648;52.264;9.632;2023-05-08T07:18:54;7.50;;;6.90;;
15094;SDS011;7648;52.264;9.632;2023-05-08T07:22:57;6.90;;;6.30;;
15094;SDS011;7648;52.264;9.632;2023-05-08T07:26:59;7.00;;;6.30;;
15094;SDS011;7648;52.264;9.632;2023-05-08T07:31:04;7.53;;;6.93;;
15094;SDS011;7648;52.264;9.632;2023-05-08T07:35:07;8.67;;;7.97;;
15094;SDS011;7648;52.264;9.632;2023-05-08T07:39:11;7.87;;;7.17;;
15094;SDS011;7648;52.264;9.632;2023-05-08T07:43:13;7.97;;;7.17;;
15094;SDS011;7648;52.264;9.632;2023-05-08T07:47:16;7.23;;;6.70;;
15094;SDS011;7648;52.264;9.632;2023-05-08T07:51:18;7.60;;;6.90;;
15094;SDS011;7648;52.264;9.632;2023-05-08T07:55:20;7.93;;;7.20;;
15094;SDS011;7648;52.264;9.632;2023-05-08T07:59:22;7.23;;;6.67;;
15094;SDS011;7648;52.264;9.632;2023-05-08T08:03:25;7.40;;;6.80;;
15094;SDS011;7648;52.264;9.632;2023-05-08T08:07:27;8.17;;;7.47;;
15094;SDS011;7648;52.264;9.632;2023-05-08T08:11:29;8.10;;;7.30;;
15094;SDS011;7648;52.264;9.632;2023-05-08T08:15:31;7.70;;;7.00;;
15094;SDS011;7648;52.264;9.632;2023-05-08T08:19:35;8.03;;;7.37;;
15094;SDS011;7648;52.264;9.632;2023-05-08T08:23:37;6.57;;;6.07;;
15094;SDS011;7648;52.264;9.632;2023-05-08T08:27:39;6.87;;;6.27;;
15094;SDS011;7648;52.264;9.632;2023-05-08T08:31:41;8.27;;;7.53;;
15094;SDS011;7648;52.264;9.632;2023-05-08T08:35:44;8.43;;;7.63;;
15094;SDS011;7648;52.264;9.632;2023-05-08T08:39:46;8.73;;;7.83;;
15094;SDS011;7648;52.264;9.632;2023-05-08T08:43:48;8.03;;;7.33;;
15094;SDS011;7648;52.264;9.632;2023-05-08T08:47:50;7.80;;;7.20;;
15094;SDS011;7648;52.264;9.632;2023-05-08T08:51:54;9.40;;;7.83;;
15094;SDS011;7648;52.264;9.632;2023-05-08T08:56:00;8.87;;;8.00;;
15094;SDS011;7648;52.264;9.632;2023-05-08T09:00:05;8.00;;;7.30;;
15094;SDS011;7648;52.264;9.632;2023-05-08T09:04:11;8.70;;;7.80;;
15094;SDS011;7648;52.264;9.632;2023-05-08T09:08:14;8.13;;;7.43;;
15094;SDS011;7648;52.264;9.632;2023-05-08T09:12:18;8.20;;;7.50;;
15094;SDS011;7648;52.264;9.632;2023-05-08T09:16:20;7.90;;;7.20;;
15094;SDS011;7648;52.264;9.632;2023-05-08T09:20:22;8.27;;;7.47;;
15094;SDS011;7648;52.264;9.632;2023-05-08T09:24:27;8.63;;;7.83;;
15094;SDS011;7648;52.264;9.632;2023-05-08T09:33:12;8.83;;;8.03;;
15094;SDS011;7648;52.264;9.632;2023-05-08T09:37:14;8.20;;;7.50;;
15094;SDS011;7648;52.264;9.632;2023-05-08T09:41:18;7.90;;;7.27;;
15094;SDS011;7648;52.264;9.632;2023-05-08T09:45:30;8.13;;;7.50;;
15094;SDS011;7648;52.264;9.632;2023-05-08T09:49:34;8.23;;;7.60;;
15094;SDS011;7648;52.264;9.632;2023-05-08T09:53:36;7.43;;;6.73;;
15094;SDS011;7648;52.264;9.632;2023-05-08T09:57:50;7.80;;;7.20;;
15094;SDS011;7648;52.264;9.632;2023-05-08T10:01:53;7.57;;;6.97;;
15094;SDS011;7648;52.264;9.632;2023-05-08T10:06:04;7.60;;;6.90;;
15094;SDS011;7648;52.264;9.632;2023-05-08T10:10:13;6.87;;;6.37;;
15094;SDS011;7648;52.264;9.632;2023-05-08T10:14:18;6.70;;;6.30;;
15094;SDS011;7648;52.264;9.632;2023-05-08T10:18:21;6.87;;;6.27;;
15094;SDS011;7648;52.264;9.632;2023-05-08T10:22:25;7.17;;;6.67;;
15094;SDS011;7648;52.264;9.632;2023-05-08T10:26:30;6.70;;;6.30;;
15094;SDS011;7648;52.264;9.632;2023-05-08T10:30:35;6.10;;;5.73;;
15094;SDS011;7648;52.264;9.632;2023-05-08T10:34:40;6.00;;;5.60;;
15094;SDS011;7648;52.264;9.632;2023-05-08T10:38:43;5.97;;;5.57;;
15094;SDS011;7648;52.264;9.632;2023-05-08T10:42:46;6.10;;;5.67;;
15094;SDS011;7648;52.264;9.632;2023-05-08T10:46:53;6.20;;;5.80;;
15094;SDS011;7648;52.264;9.632;2023-05-08T10:51:02;6.23;;;5.83;;
15094;SDS011;7648;52.264;9.632;2023-05-08T10:55:18;5.77;;;5.27;;
15094;SDS011;7648;52.264;9.632;2023-05-08T10:59:23;4.80;;;4.50;;
15094;SDS011;7648;52.264;9.632;2023-05-08T11:03:26;5.00;;;4.70;;
15094;SDS011;7648;52.264;9.632;2023-05-08T11:07:42;5.93;;;5.53;;
15094;SDS011;7648;52.264;9.632;2023-05-08T11:11:58;5.03;;;4.73;;
15094;SDS011;7648;52.264;9.632;2023-05-08T11:16:08;5.10;;;4.70;;
15094;SDS011;7648;52.264;9.632;2023-05-08T11:20:11;5.33;;;4.93;;
15094;SDS011;7648;52.264;9.632;2023-05-08T11:24:13;5.97;;;5.57;;
15094;SDS011;7648;52.264;9.632;2023-05-08T11:28:16;6.13;;;5.73;;
15094;SDS011;7648;52.264;9.632;2023-05-08T11:32:18;6.43;;;5.93;;
15094;SDS011;7648;52.264;9.632;2023-05-08T11:36:21;6.07;;;5.50;;
15094;SDS011;7648;52.264;9.632;2023-05-08T11:40:43;5.53;;;5.10;;
15094;SDS011;7648;52.264;9.632;2023-05-08T11:44:46;5.87;;;5.47;;
15094;SDS011;7648;52.264;9.632;2023-05-08T11:48:51;6.60;;;6.10;;
15094;SDS011;7648;52.264;9.632;2023-05-08T11:53:01;5.37;;;5.03;;
15094;SDS011;7648;52.264;9.632;2023-05-08T11:57:03;6.20;;;5.80;;
15094;SDS011;7648;52.264;9.632;2023-05-08T12:01:05;6.30;;;5.90;;
15094;SDS011;7648;52.264;9.632;2023-05-08T12:05:07;5.43;;;5.03;;
15094;SDS011;7648;52.264;9.632;2023-05-08T12:09:12;6.22;;;5.75;;
15094;SDS011;7648;52.264;9.632;2023-05-08T12:13:15;6.93;;;6.43;;
15094;SDS011;7648;52.264;9.632;2023-05-08T12:17:18;6.63;;;6.00;;
15094;SDS011;7648;52.264;9.632;2023-05-08T12:21:20;5.35;;;5.05;;
15094;SDS011;7648;52.264;9.632;2023-05-08T12:25:24;6.93;;;6.22;;
15094;SDS011;7648;52.264;9.632;2023-05-08T12:29:26;5.65;;;5.35;;
15094;SDS011;7648;52.264;9.632;2023-05-08T12:33:28;6.65;;;5.72;;
15094;SDS011;7648;52.264;9.632;2023-05-08T12:37:30;5.95;;;5.55;;
15094;SDS011;7648;52.264;9.632;2023-05-08T12:41:33;6.00;;;5.60;;
15094;SDS011;7648;52.264;9.632;2023-05-08T12:45:35;5.43;;;5.03;;
15094;SDS011;7648;52.264;9.632;2023-05-08T12:49:38;5.13;;;4.82;;
15094;SDS011;7648;52.264;9.632;2023-05-08T12:53:40;4.88;;;4.57;;
15094;SDS011;7648;52.264;9.632;2023-05-08T12:57:43;5.43;;;5.13;;
15094;SDS011;7648;52.264;9.632;2023-05-08T13:01:48;5.50;;;5.20;;
15094;SDS011;7648;52.264;9.632;2023-05-08T13:05:51;5.38;;;5.03;;
15094;SDS011;7648;52.264;9.632;2023-05-08T13:09:54;5.03;;;4.72;;
15094;SDS011;7648;52.264;9.632;2023-05-08T13:13:58;5.40;;;5.00;;
15094;SDS011;7648;52.264;9.632;2023-05-08T13:18:00;5.13;;;4.72;;
15094;SDS011;7648;52.264;9.632;2023-05-08T13:22:02;4.70;;;4.40;;
15094;SDS011;7648;52.264;9.632;2023-05-08T13:26:04;5.30;;;5.00;;
15094;SDS011;7648;52.264;9.632;2023-05-08T13:30:08;4.47;;;4.18;;
15094;SDS011;7648;52.264;9.632;2023-05-08T13:34:10;3.78;;;3.58;;
15094;SDS011;7648;52.264;9.632;2023-05-08T13:38:12;4.68;;;4.47;;
15094;SDS011;7648;52.264;9.632;2023-05-08T13:42:14;4.65;;;4.38;;
15094;SDS011;7648;52.264;9.632;2023-05-08T13:46:17;4.75;;;4.45;;
15094;SDS011;7648;52.264;9.632;2023-05-08T13:50:19;5.38;;;4.93;;
15094;SDS011;7648;52.264;9.632;2023-05-08T13:54:22;4.57;;;4.38;;
15094;SDS011;7648;52.264;9.632;2023-05-08T13:58:23;4.35;;;4.15;;
15094;SDS011;7648;52.264;9.632;2023-05-08T14:02:27;4.97;;;4.68;;
15094;SDS011;7648;52.264;9.632;2023-05-08T14:06:29;4.25;;;4.05;;
15094;SDS011;7648;52.264;9.632;2023-05-08T14:10:31;4.68;;;4.38;;
15094;SDS011;7648;52.264;9.632;2023-05-08T14:14:33;4.78;;;4.35;;
15094;SDS011;7648;52.264;9.632;2023-05-08T14:18:36;4.10;;;3.90;;
15094;SDS011;7648;52.264;9.632;2023-05-08T14:22:39;4.45;;;4.15;;
15094;SDS011;7648;52.264;9.632;2023-05-08T14:26:41;3.70;;;3.50;;
15094;SDS011;7648;52.264;9.632;2023-05-08T14:30:43;4.90;;;4.50;;
15094;SDS011;7648;52.264;9.632;2023-05-08T14:34:46;4.18;;;3.97;;
15094;SDS011;7648;52.264;9.632;2023-05-08T14:38:48;4.30;;;4.10;;
15094;SDS011;7648;52.264;9.632;2023-05-08T14:42:50;4.47;;;4.25;;
15094;SDS011;7648;52.264;9.632;2023-05-08T14:46:52;4.40;;;4.10;;
15094;SDS011;7648;52.264;9.632;2023-05-08T14:50:56;4.85;;;4.43;;
15094;SDS011;7648;52.264;9.632;2023-05-08T14:54:58;3.92;;;3.72;;
15094;SDS011;7648;52.264;9.632;2023-05-08T14:59:00;4.60;;;4.30;;
15094;SDS011;7648;52.264;9.632;2023-05-08T15:03:01;3.92;;;3.72;;
15094;SDS011;7648;52.264;9.632;2023-05-08T15:07:05;4.82;;;4.53;;
15094;SDS011;7648;52.264;9.632;2023-05-08T15:11:07;4.68;;;4.40;;
15094;SDS011;7648;52.264;9.632;2023-05-08T15:15:09;3.85;;;3.55;;
15094;SDS011;7648;52.264;9.632;2023-05-08T15:19:11;4.13;;;3.92;;
15094;SDS011;7648;52.264;9.632;2023-05-08T15:23:14;5.05;;;4.75;;
15094;SDS011;7648;52.264;9.632;2023-05-08T15:27:19;4.78;;;4.57;;
15094;SDS011;7648;52.264;9.632;2023-05-08T15:31:21;4.78;;;4.53;;
15094;SDS011;7648;52.264;9.632;2023-05-08T15:35:23;3.63;;;3.42;;
15094;SDS011;7648;52.264;9.632;2023-05-08T15:39:26;4.28;;;3.97;;
15094;SDS011;7648;52.264;9.632;2023-05-08T15:43:28;3.85;;;3.65;;
15094;SDS011;7648;52.264;9.632;2023-05-08T15:47:29;4.30;;;4.10;;
15094;SDS011;7648;52.264;9.632;2023-05-08T15:51:31;4.35;;;4.15;;
15094;SDS011;7648;52.264;9.632;2023-05-08T15:55:34;3.92;;;3.72;;
15094;SDS011;7648;52.264;9.632;2023-05-08T15:59:36;4.00;;;3.80;;
15094;SDS011;7648;52.264;9.632;2023-05-08T16:03:38;3.50;;;3.30;;
15094;SDS011;7648;52.264;9.632;2023-05-08T16:07:40;4.03;;;3.83;;
15094;SDS011;7648;52.264;9.632;2023-05-08T16:11:44;3.50;;;3.30;;
15094;SDS011;7648;52.264;9.632;2023-05-08T16:15:47;3.70;;;3.50;;
15094;SDS011;7648;52.264;9.632;2023-05-08T16:19:48;3.80;;;3.60;;
15094;SDS011;7648;52.264;9.632;2023-05-08T16:23:50;2.92;;;2.72;;
15094;SDS011;7648;52.264;9.632;2023-05-08T16:27:53;3.60;;;3.40;;
15094;SDS011;7648;52.264;9.632;2023-05-08T16:31:55;3.30;;;3.20;;
15094;SDS011;7648;52.264;9.632;2023-05-08T16:35:57;3.33;;;3.13;;
15094;SDS011;7648;52.264;9.632;2023-05-08T16:39:59;3.53;;;3.33;;
15094;SDS011;7648;52.264;9.632;2023-05-08T16:44:03;3.60;;;3.40;;
15094;SDS011;7648;52.264;9.632;2023-05-08T16:48:04;3.72;;;3.53;;
15094;SDS011;7648;52.264;9.632;2023-05-08T16:52:06;3.10;;;3.00;;
15094;SDS011;7648;52.264;9.632;2023-05-08T16:56:08;3.28;;;2.95;;
15094;SDS011;7648;52.264;9.632;2023-05-08T17:00:14;2.97;;;2.78;;
15094;SDS011;7648;52.264;9.632;2023-05-08T17:04:16;2.83;;;2.70;;
15094;SDS011;7648;52.264;9.632;2023-05-08T17:08:18;3.20;;;3.00;;
15094;SDS011;7648;52.264;9.632;2023-05-08T17:12:20;3.22;;;3.03;;
15094;SDS011;7648;52.264;9.632;2023-05-08T17:16:23;2.90;;;2.70;;
15094;SDS011;7648;52.264;9.632;2023-05-08T17:20:25;2.97;;;2.88;;
15094;SDS011;7648;52.264;9.632;2023-05-08T17:24:29;3.10;;;2.90;;
15094;SDS011;7648;52.264;9.632;2023-05-08T17:28:31;3.28;;;2.97;;
15094;SDS011;7648;52.264;9.632;2023-05-08T17:32:34;2.87;;;2.70;;
15094;SDS011;7648;52.264;9.632;2023-05-08T17:36:36;3.10;;;2.90;;
15094;SDS011;7648;52.264;9.632;2023-05-08T17:40:38;2.63;;;2.53;;
15094;SDS011;7648;52.264;9.632;2023-05-08T17:44:40;2.60;;;2.50;;
15094;SDS011;7648;52.264;9.632;2023-05-08T17:48:43;2.57;;;2.37;;
15094;SDS011;7648;52.264;9.632;2023-05-08T17:52:45;3.03;;;2.83;;
15094;SDS011;7648;52.264;9.632;2023-05-08T17:56:46;2.57;;;2.47;;
15094;SDS011;7648;52.264;9.632;2023-05-08T18:00:48;3.00;;;2.87;;
15094;SDS011;7648;52.264;9.632;2023-05-08T18:04:52;2.90;;;2.70;;
15094;SDS011;7648;52.264;9.632;2023-05-08T18:08:54;2.37;;;2.27;;
15094;SDS011;7648;52.264;9.632;2023-05-08T18:12:55;2.37;;;2.27;;
15094;SDS011;7648;52.264;9.632;2023-05-08T18:16:57;2.97;;;2.77;;
15094;SDS011;7648;52.264;9.632;2023-05-08T18:21:01;2.90;;;2.70;;
15094;SDS011;7648;52.264;9.632;2023-05-08T18:25:03;2.57;;;2.47;;
15094;SDS011;7648;52.264;9.632;2023-05-08T18:29:05;2.33;;;2.20;;
15094;SDS011;7648;52.264;9.632;2023-05-08T18:33:07;3.00;;;2.80;;
15094;SDS011;7648;52.264;9.632;2023-05-08T18:37:10;2.43;;;2.33;;
15094;SDS011;7648;52.264;9.632;2023-05-08T18:41:12;2.73;;;2.63;;
15094;SDS011;7648;52.264;9.632;2023-05-08T18:45:14;2.53;;;2.37;;
15094;SDS011;7648;52.264;9.632;2023-05-08T18:49:16;2.67;;;2.57;;
15094;SDS011;7648;52.264;9.632;2023-05-08T18:53:20;3.00;;;2.80;;
15094;SDS011;7648;52.264;9.632;2023-05-08T18:57:22;2.40;;;2.30;;
15094;SDS011;7648;52.264;9.632;2023-05-08T19:01:24;3.17;;;2.90;;
15094;SDS011;7648;52.264;9.632;2023-05-08T19:05:26;2.70;;;2.60;;
15094;SDS011;7648;52.264;9.632;2023-05-08T19:09:29;2.53;;;2.43;;
15094;SDS011;7648;52.264;9.632;2023-05-08T19:13:32;2.80;;;2.70;;
15094;SDS011;7648;52.264;9.632;2023-05-08T19:17:34;2.93;;;2.73;;
15094;SDS011;7648;52.264;9.632;2023-05-08T19:21:36;2.60;;;2.40;;
15094;SDS011;7648;52.264;9.632;2023-05-08T19:25:39;3.03;;;2.83;;
15094;SDS011;7648;52.264;9.632;2023-05-08T19:29:41;2.23;;;2.13;;
15094;SDS011;7648;52.264;9.632;2023-05-08T19:33:43;2.73;;;2.53;;
15094;SDS011;7648;52.264;9.632;2023-05-08T19:37:46;2.70;;;2.60;;
15094;SDS011;7648;52.264;9.632;2023-05-08T19:41:49;2.60;;;2.50;;
15094;SDS011;7648;52.264;9.632;2023-05-08T19:45:51;2.40;;;2.23;;
15094;SDS011;7648;52.264;9.632;2023-05-08T19:49:53;2.40;;;2.30;;
15094;SDS011;7648;52.264;9.632;2023-05-08T19:53:55;2.37;;;2.27;;
15094;SDS011;7648;52.264;9.632;2023-05-08T19:57:58;2.60;;;2.40;;
15094;SDS011;7648;52.264;9.632;2023-05-08T20:02:00;2.13;;;2.03;;
15094;SDS011;7648;52.264;9.632;2023-05-08T20:06:02;2.40;;;2.30;;
15094;SDS011;7648;52.264;9.632;2023-05-08T20:10:04;2.20;;;2.10;;
15094;SDS011;7648;52.264;9.632;2023-05-08T20:14:08;2.40;;;2.30;;
15094;SDS011;7648;52.264;9.632;2023-05-08T20:18:10;2.30;;;2.20;;
15094;SDS011;7648;52.264;9.632;2023-05-08T20:22:12;2.47;;;2.00;;
15094;SDS011;7648;52.264;9.632;2023-05-08T20:26:14;2.77;;;2.60;;
15094;SDS011;7648;52.264;9.632;2023-05-08T20:30:17;2.83;;;2.70;;
15094;SDS011;7648;52.264;9.632;2023-05-08T20:34:19;2.07;;;1.97;;
15094;SDS011;7648;52.264;9.632;2023-05-08T20:38:21;2.40;;;2.20;;
15094;SDS011;7648;52.264;9.632;2023-05-08T20:42:23;2.50;;;2.40;;
15094;SDS011;7648;52.264;9.632;2023-05-08T20:46:26;2.10;;;2.00;;
15094;SDS011;7648;52.264;9.632;2023-05-08T20:50:28;2.57;;;2.47;;
15094;SDS011;7648;52.264;9.632;2023-05-08T20:54:30;2.93;;;2.27;;
15094;SDS011;7648;52.264;9.632;2023-05-08T20:58:32;2.40;;;2.20;;
15094;SDS011;7648;52.264;9.632;2023-05-08T21:02:35;2.00;;;1.90;;
15094;SDS011;7648;52.264;9.632;2023-05-08T21:06:39;1.90;;;1.80;;
15094;SDS011;7648;52.264;9.632;2023-05-08T21:10:41;2.07;;;1.87;;
15094;SDS011;7648;52.264;9.632;2023-05-08T21:14:42;2.20;;;2.10;;
15094;SDS011;7648;52.264;9.632;2023-05-08T21:18:46;2.20;;;1.90;;
15094;SDS011;7648;52.264;9.632;2023-05-08T21:22:47;2.00;;;1.90;;
15094;SDS011;7648;52.264;9.632;2023-05-08T21:26:50;2.03;;;1.93;;
15094;SDS011;7648;52.264;9.632;2023-05-08T21:30:52;2.17;;;2.07;;
15094;SDS011;7648;52.264;9.632;2023-05-08T21:34:55;2.57;;;2.37;;
15094;SDS011;7648;52.264;9.632;2023-05-08T21:38:57;2.30;;;2.20;;
15094;SDS011;7648;52.264;9.632;2023-05-08T21:42:59;2.00;;;1.90;;
15094;SDS011;7648;52.264;9.632;2023-05-08T21:47:01;2.00;;;1.90;;
15094;SDS011;7648;52.264;9.632;2023-05-08T21:51:04;1.80;;;1.70;;
15094;SDS011;7648;52.264;9.632;2023-05-08T21:55:07;2.17;;;2.07;;
15094;SDS011;7648;52.264;9.632;2023-05-08T21:59:09;2.00;;;1.90;;
15094;SDS011;7648;52.264;9.632;2023-05-08T22:03:11;2.37;;;2.23;;
15094;SDS011;7648;52.264;9.632;2023-05-08T22:07:14;2.17;;;2.07;;
15094;SDS011;7648;52.264;9.632;2023-05-08T22:11:16;1.73;;;1.70;;
15094;SDS011;7648;52.264;9.632;2023-05-08T22:15:18;1.90;;;1.80;;
15094;SDS011;7648;52.264;9.632;2023-05-08T22:19:20;2.43;;;2.33;;
15094;SDS011;7648;52.264;9.632;2023-05-08T22:23:23;2.00;;;1.90;;
15094;SDS011;7648;52.264;9.632;2023-05-08T22:27:25;1.83;;;1.73;;
15094;SDS011;7648;52.264;9.632;2023-05-08T22:31:26;1.73;;;1.73;;
15094;SDS011;7648;52.264;9.632;2023-05-08T22:35:29;2.00;;;1.90;;
15094;SDS011;7648;52.264;9.632;2023-05-08T22:39:32;2.53;;;2.37;;
15094;SDS011;7648;52.264;9.632;2023-05-08T22:43:34;2.00;;;1.90;;
15094;SDS011;7648;52.264;9.632;2023-05-08T22:47:37;2.13;;;2.03;;
15094;SDS011;7648;52.264;9.632;2023-05-08T22:51:39;1.90;;;1.80;;
15094;SDS011;7648;52.264;9.632;2023-05-08T22:55:42;1.60;;;1.50;;
15094;SDS011;7648;52.264;9.632;2023-05-08T22:59:44;2.83;;;1.93;;
15094;SDS011;7648;52.264;9.632;2023-05-08T23:03:46;1.60;;;1.60;;
15094;SDS011;7648;52.264;9.632;2023-05-08T23:07:48;2.00;;;1.90;;
15094;SDS011;7648;52.264;9.632;2023-05-08T23:11:51;1.87;;;1.77;;
15094;SDS011;7648;52.264;9.632;2023-05-08T23:15:53;2.07;;;1.97;;
15094;SDS011;7648;52.264;9.632;2023-05-08T23:19:55;2.07;;;1.97;;
15094;SDS011;7648;52.264;9.632;2023-05-08T23:23:57;1.97;;;1.87;;
15094;SDS011;7648;52.264;9.632;2023-05-08T23:28:00;1.70;;;1.60;;
15094;SDS011;7648;52.264;9.632;2023-05-08T23:32:02;2.00;;;1.90;;
15094;SDS011;7648;52.264;9.632;2023-05-08T23:36:04;3.47;;;2.23;;
15094;SDS011;7648;52.264;9.632;2023-05-08T23:40:07;2.03;;;1.93;;
15094;SDS011;7648;52.264;9.632;2023-05-08T23:44:11;3.10;;;1.97;;
15094;SDS011;7648;52.264;9.632;2023-05-08T23:48:13;2.57;;;2.37;;
15094;SDS011;7648;52.264;9.632;2023-05-08T23:52:15;2.13;;;1.90;;
15094;SDS011;7648;52.264;9.632;2023-05-08T23:56:17;2.17;;;2.07;;
